Time;durP1;ratioP1;P1;durP2;ratioP2;P2;SDS_P1;SDS_P2;PMS_P1;PMS_P2;Temp;Humidity;BMP_temperature;BMP_pressure;BME280_temperature;BME280_humidity;BME280_pressure;Samples;Min_cycle;Max_cycle;Signal;HPM_P1;HPM_P2
2024/03/28 00:09:00;;;;;;;16.70;8.20;;;;;;;12.66;67.01;98162.04;671127;1272;139086;-80
2024/03/28 00:24:04;;;;;;;14.80;8.10;;;;;;;11.72;69.61;98143.89;668960;1263;139232;-80
2024/03/28 00:39:09;;;;;;;16.30;8.60;;;;;;;11.80;69.52;98129.38;669216;1262;141086;-80
2024/03/28 00:54:12;;;;;;;13.70;7.00;;;;;;;12.17;67.72;98118.41;669290;1267;139758;-81
2024/03/28 01:09:15;;;;;;;13.20;6.80;;;;;;;12.13;67.52;98105.42;670782;1264;139158;-79
2024/03/28 01:24:18;;;;;;;15.10;7.20;;;;;;;12.23;67.24;98099.59;669492;1264;138713;-80
2024/03/28 01:39:22;;;;;;;16.40;8.00;;;;;;;12.21;67.00;98097.60;669180;1267;141137;-80
2024/03/28 01:54:26;;;;;;;12.10;7.30;;;;;;;12.09;67.21;98087.70;669954;1264;139299;-79
2024/03/28 02:09:29;;;;;;;15.90;7.40;;;;;;;12.09;67.06;98076.71;670111;1274;139805;-79
2024/03/28 02:24:36;;;;;;;13.20;6.20;;;;;;;12.00;67.23;98070.98;670232;1262;138910;-80
2024/03/28 02:39:39;;;;;;;17.80;7.10;;;;;;;12.02;67.35;98066.39;669186;1263;140661;-80
2024/03/28 02:54:42;;;;;;;14.40;6.70;;;;;;;11.94;67.81;98054.38;668246;1260;140124;-79
2024/03/28 03:09:45;;;;;;;13.00;7.30;;;;;;;12.23;67.44;98036.12;669233;1262;139605;-79
2024/03/28 03:24:49;;;;;;;14.10;7.50;;;;;;;12.06;68.07;98025.70;669294;1262;140444;-79
2024/03/28 03:39:56;;;;;;;14.50;6.60;;;;;;;12.40;67.71;98008.16;671206;1264;139453;-81
2024/03/28 03:54:59;;;;;;;11.10;7.30;;;;;;;12.51;67.81;97987.77;669219;1272;141052;-79
2024/03/28 04:10:06;;;;;;;10.90;6.50;;;;;;;12.59;67.80;97960.85;669280;1273;140151;-82
2024/03/28 04:31:25;;;;;;;13.30;7.30;;;;;;;12.98;66.87;97952.05;648805;1300;545062;-79
2024/03/28 04:46:30;;;;;;;12.60;6.90;;;;;;;13.03;66.80;97939.98;664944;1271;139924;-80
2024/03/28 05:01:33;;;;;;;11.40;7.00;;;;;;;12.87;67.77;97921.29;665364;1275;140605;-81
2024/03/28 05:16:38;;;;;;;12.20;6.20;;;;;;;12.77;69.47;97955.63;666075;1275;138605;-82
2024/03/28 05:31:41;;;;;;;17.10;7.90;;;;;;;12.46;71.45;97944.80;669303;1271;139158;-80
2024/03/28 05:46:44;;;;;;;17.00;7.90;;;;;;;12.09;75.23;97926.56;665818;1271;139552;-79
2024/03/28 06:01:47;;;;;;;20.80;8.10;;;;;;;12.19;76.43;97931.73;669959;1268;139018;-82
2024/03/28 06:16:51;;;;;;;13.40;7.00;;;;;;;12.63;76.40;97901.14;667745;1268;139449;-80
2024/03/28 06:31:54;;;;;;;61.10;25.60;;;;;;;12.85;76.51;97901.09;667810;1266;139635;-81
2024/03/28 06:46:58;;;;;;;114.00;44.80;;;;;;;13.00;76.72;97914.84;670019;1281;138702;-81
2024/03/28 07:02:01;;;;;;;73.50;24.70;;;;;;;13.30;77.34;97912.16;669977;1269;139517;-79
2024/03/28 07:17:04;;;;;;;47.20;22.10;;;;;;;13.47;76.81;97915.38;667539;1269;140087;-79
2024/03/28 07:32:08;;;;;;;36.50;16.20;;;;;;;13.74;75.58;97909.16;668377;1268;140768;-80
2024/03/28 07:47:11;;;;;;;133.80;61.20;;;;;;;13.60;76.83;97911.73;675799;1269;139831;-80
2024/03/28 08:02:15;;;;;;;95.30;44.10;;;;;;;13.57;78.08;97889.53;671804;1263;140777;-81
2024/03/28 08:17:19;;;;;;;45.60;19.30;;;;;;;13.68;78.92;97895.22;669511;1268;139060;-83
2024/03/28 08:32:22;;;;;;;62.20;22.20;;;;;;;13.86;79.23;97904.29;672838;1281;139760;-79
2024/03/28 08:47:26;;;;;;;54.50;23.20;;;;;;;13.90;79.27;97897.61;672442;1268;140121;-82
2024/03/28 09:02:29;;;;;;;76.30;33.40;;;;;;;14.03;79.47;97908.33;672329;1269;140638;-81
2024/03/28 09:17:34;;;;;;;49.40;21.90;;;;;;;14.37;81.63;97907.56;676194;1268;139860;-80
2024/03/28 09:32:38;;;;;;;31.00;13.90;;;;;;;16.83;78.40;97871.36;672787;1268;141177;-78
2024/03/28 09:47:41;;;;;;;35.50;15.40;;;;;;;19.29;72.73;97844.95;670149;1266;139776;-79
2024/03/28 10:02:53;;;;;;;34.00;13.40;;;;;;;19.26;68.98;97846.89;669798;1269;140574;-79
2024/03/28 10:18:02;;;;;;;46.30;18.60;;;;;;;20.23;67.53;97822.51;669023;1268;140045;-83
2024/03/28 10:33:06;;;;;;;65.10;21.00;;;;;;;20.22;67.17;97811.73;671239;1280;138522;-81
2024/03/28 10:48:16;;;;;;;48.10;16.10;;;;;;;19.03;67.83;97812.29;670086;1269;139016;-80
2024/03/28 11:03:21;;;;;;;48.00;15.80;;;;;;;18.49;69.81;97813.02;669706;1277;138618;-78
2024/03/28 11:18:25;;;;;;;47.70;16.70;;;;;;;17.77;71.47;97823.21;667205;1275;139505;-79
2024/03/28 11:33:33;;;;;;;42.40;14.90;;;;;;;17.83;72.38;97817.79;671530;1279;139326;-78
2024/03/28 11:48:37;;;;;;;47.10;18.30;;;;;;;17.73;72.79;97819.85;672054;1262;139868;-80
2024/03/28 12:03:43;;;;;;;40.90;11.70;;;;;;;17.44;73.93;97849.29;671374;1263;142973;-77
2024/03/28 12:18:47;;;;;;;32.00;13.30;;;;;;;17.20;75.24;97863.13;668131;1266;140460;-79
2024/03/28 12:33:50;;;;;;;44.70;17.70;;;;;;;16.85;77.61;97850.71;672602;1264;139612;-78
2024/03/28 12:48:53;;;;;;;35.20;12.80;;;;;;;17.55;77.11;97833.39;667650;1263;140769;-80
2024/03/28 13:03:57;;;;;;;28.30;11.60;;;;;;;18.44;75.14;97833.61;666517;1264;139197;-81
2024/03/28 13:19:00;;;;;;;61.50;35.20;;;;;;;18.63;75.41;97836.97;666021;1264;139882;-80
2024/03/28 13:34:04;;;;;;;39.30;12.60;;;;;;;19.01;75.56;97824.36;666214;1264;139034;-79
2024/03/28 13:49:25;;;;;;;54.20;18.90;;;;;;;18.84;76.76;97833.30;666017;1260;139768;-79
2024/03/28 14:04:29;;;;;;;39.70;13.00;;;;;;;19.00;75.64;97831.66;665895;1263;140419;-79
2024/03/28 14:19:33;;;;;;;33.50;11.50;;;;;;;19.59;71.18;97830.03;666190;1264;139554;-79
2024/03/28 14:34:36;;;;;;;45.30;19.10;;;;;;;19.10;70.80;97828.31;666346;1275;139302;-80
2024/03/28 14:49:39;;;;;;;14.80;5.10;;;;;;;17.92;73.80;97873.59;665805;1266;139218;-80
2024/03/28 15:04:43;;;;;;;10.80;6.80;;;;;;;16.30;82.57;97890.59;666495;1266;140583;-80
2024/03/28 15:19:46;;;;;;;10.20;5.50;;;;;;;16.05;86.42;97910.06;670235;1264;139013;-81
2024/03/28 15:34:49;;;;;;;19.40;9.30;;;;;;;16.37;86.06;97919.67;678355;1263;138757;-80
2024/03/28 15:49:53;;;;;;;46.60;24.50;;;;;;;16.53;84.81;97948.55;666330;1264;139243;-81
2024/03/28 16:04:57;;;;;;;20.50;9.20;;;;;;;15.73;82.16;98003.80;668809;1264;141026;-81
2024/03/28 16:20:00;;;;;;;14.20;9.40;;;;;;;15.15;79.03;98035.77;666649;1266;139330;-79
2024/03/28 16:35:04;;;;;;;14.60;9.30;;;;;;;14.74;77.76;98054.20;666599;1263;198298;-80
2024/03/28 16:50:09;;;;;;;16.30;10.40;;;;;;;14.45;77.71;98060.34;667213;1276;139252;-81
2024/03/28 17:05:12;;;;;;;16.90;10.90;;;;;;;14.27;78.09;98088.61;666935;1260;139409;-81
2024/03/28 17:20:15;;;;;;;16.10;9.40;;;;;;;14.01;78.29;98117.70;666832;1264;139729;-81
2024/03/28 17:35:18;;;;;;;36.80;13.50;;;;;;;13.92;78.32;98161.19;667049;1261;138878;-81
2024/03/28 17:50:21;;;;;;;33.10;13.60;;;;;;;13.77;77.95;98199.42;667037;1262;139638;-80
2024/03/28 18:05:25;;;;;;;17.40;10.20;;;;;;;13.74;77.32;98219.30;667213;1261;139824;-81
2024/03/28 18:20:28;;;;;;;35.60;13.20;;;;;;;13.60;77.13;98234.08;667097;1275;139976;-80
2024/03/28 18:35:32;;;;;;;24.20;11.40;;;;;;;13.64;76.40;98241.36;667994;1265;138949;-80
2024/03/28 18:50:39;;;;;;;20.60;10.30;;;;;;;13.46;75.92;98254.47;666695;1263;139731;-80
2024/03/28 19:05:42;;;;;;;27.00;11.30;;;;;;;13.33;75.42;98252.70;666702;1262;139025;-79
2024/03/28 19:20:48;;;;;;;19.00;11.20;;;;;;;13.12;75.02;98256.09;667723;1263;139966;-81
2024/03/28 19:35:51;;;;;;;52.70;24.60;;;;;;;12.72;75.08;98262.62;671907;1260;138815;-81
2024/03/28 19:50:55;;;;;;;45.50;23.60;;;;;;;12.21;75.58;98260.41;676386;1264;138927;-80
2024/03/28 20:05:58;;;;;;;44.30;19.80;;;;;;;11.87;76.96;98255.30;672662;1264;139127;-81
2024/03/28 20:21:02;;;;;;;35.50;18.50;;;;;;;11.77;77.96;98248.90;673969;1266;139090;-80
2024/03/28 20:36:05;;;;;;;33.30;15.30;;;;;;;11.56;78.21;98258.66;673462;1264;139746;-81
2024/03/28 20:51:15;;;;;;;54.20;24.10;;;;;;;11.35;79.07;98266.65;671077;1264;139073;-80
2024/03/28 21:21:40;;;;;;;28.50;14.50;;;;;;;10.67;81.33;98283.77;677048;1261;138951;-80
2024/03/28 21:36:43;;;;;;;34.10;16.00;;;;;;;10.88;81.15;98307.72;669987;1265;139208;-80
2024/03/28 21:51:46;;;;;;;25.70;15.90;;;;;;;11.04;81.64;98333.06;670842;1263;138838;-81
2024/03/28 22:06:49;;;;;;;26.90;14.10;;;;;;;11.38;81.31;98351.81;673876;1264;140072;-80
2024/03/28 22:21:52;;;;;;;20.60;12.10;;;;;;;11.36;81.90;98358.42;674593;1264;140303;-80
2024/03/28 22:36:55;;;;;;;22.10;13.00;;;;;;;11.52;82.22;98357.00;676629;1264;139596;-81
2024/03/28 22:52:01;;;;;;;26.80;12.80;;;;;;;11.51;83.03;98383.08;675431;1264;140919;-81
2024/03/28 23:07:05;;;;;;;21.40;11.80;;;;;;;11.86;81.25;98412.41;672838;1265;138987;-80
2024/03/28 23:22:09;;;;;;;20.30;11.20;;;;;;;11.96;80.56;98414.36;674689;1265;139365;-81
2024/03/28 23:37:12;;;;;;;15.50;9.00;;;;;;;12.08;79.27;98448.80;677310;1264;139610;-80
2024/03/28 23:52:16;;;;;;;30.40;18.00;;;;;;;12.21;78.56;98464.35;669496;1264;139343;-80
